createdAt,value
2023-05-21T00:07:12.836Z,101826.06
2023-05-21T00:09:42.686Z,101810.78
2023-05-21T00:12:12.744Z,101811.50
2023-05-21T00:14:42.641Z,101818.53
2023-05-21T00:17:12.513Z,101808.00
2023-05-21T00:19:42.861Z,101804.28
2023-05-21T00:22:16.197Z,101801.81
2023-05-21T00:24:46.246Z,101806.09
2023-05-21T00:27:16.269Z,101804.31
2023-05-21T00:29:46.666Z,101804.44
2023-05-21T00:32:16.540Z,101802.38
2023-05-21T00:34:46.412Z,101798.72
2023-05-21T00:37:19.046Z,101794.91
2023-05-21T00:39:49.053Z,101795.06
2023-05-21T00:42:19.370Z,101795.63
2023-05-21T00:44:49.269Z,101791.88
2023-05-21T00:47:21.780Z,101799.75
2023-05-21T00:49:52.106Z,101789.75
2023-05-21T00:52:27.233Z,101790.00
2023-05-21T00:54:57.273Z,101788.19
2023-05-21T00:57:28.756Z,101788.84
2023-05-21T00:59:58.705Z,101786.22
2023-05-21T01:02:28.762Z,101779.13
2023-05-21T01:05:00.564Z,101782.63
2023-05-21T01:07:35.131Z,101773.66
2023-05-21T01:10:06.746Z,101770.34
2023-05-21T01:12:37.729Z,101770.25
2023-05-21T01:15:11.974Z,101772.69
2023-05-21T01:17:42.421Z,101766.09
2023-05-21T01:20:13.805Z,101762.41
2023-05-21T01:22:52.734Z,101763.44
2023-05-21T01:25:23.081Z,101757.03
2023-05-21T01:27:53.455Z,101761.31
2023-05-21T01:30:24.725Z,101758.66
2023-05-21T01:33:00.110Z,101756.03
2023-05-21T01:35:32.897Z,101757.78
2023-05-21T01:38:08.525Z,101766.63
2023-05-21T01:40:42.286Z,101763.16
2023-05-21T01:43:12.576Z,101757.78
2023-05-21T01:45:43.870Z,101759.53
2023-05-21T01:48:15.274Z,101760.84
2023-05-21T01:50:47.113Z,101761.88
2023-05-21T01:53:19.794Z,101758.94
2023-05-21T01:55:49.841Z,101753.69
2023-05-21T01:58:21.396Z,101750.84
2023-05-21T02:00:52.194Z,101750.78
2023-05-21T02:03:23.335Z,101754.41
2023-05-21T02:05:53.348Z,101752.63
2023-05-21T02:08:27.481Z,101749.22
2023-05-21T02:10:58.119Z,101755.47
2023-05-21T02:13:29.357Z,101751.94
2023-05-21T02:15:59.313Z,101748.25
2023-05-21T02:18:29.504Z,101742.22
2023-05-21T02:20:59.882Z,101738.00
2023-05-21T02:23:32.315Z,101732.69
2023-05-21T02:26:02.415Z,101738.41
2023-05-21T02:28:32.908Z,101729.53
2023-05-21T02:31:02.707Z,101719.69
2023-05-21T02:33:32.480Z,101722.22
2023-05-21T02:36:02.284Z,101720.34
2023-05-21T02:38:34.631Z,101724.00
2023-05-21T02:41:04.456Z,101720.38
2023-05-21T02:43:34.712Z,101715.88
2023-05-21T02:46:04.510Z,101719.28
2023-05-21T02:48:34.351Z,101718.25
2023-05-21T02:51:04.308Z,101715.69
2023-05-21T02:53:36.902Z,101718.31
2023-05-21T02:56:07.351Z,101717.44
2023-05-21T02:58:37.178Z,101711.13
2023-05-21T03:01:07.224Z,101708.31
2023-05-21T03:03:37.189Z,101700.72
2023-05-21T03:06:10.316Z,101710.56
2023-05-21T03:08:42.844Z,101714.00
2023-05-21T03:11:12.811Z,101720.25
2023-05-21T03:13:42.901Z,101716.47
2023-05-21T03:16:12.895Z,101703.19
2023-05-21T03:18:43.503Z,101705.88
2023-05-21T03:21:15.602Z,101707.72
2023-05-21T03:23:48.097Z,101707.59
2023-05-21T03:26:18.167Z,101705.97
2023-05-21T03:28:48.134Z,101711.22
2023-05-21T03:31:18.427Z,101705.06
2023-05-21T03:33:53.964Z,101711.03
2023-05-21T03:36:27.478Z,101698.75
2023-05-21T03:39:01.904Z,101693.56
2023-05-21T03:41:33.949Z,101695.34
2023-05-21T03:44:10.985Z,101702.47
2023-05-21T03:46:50.766Z,101702.38
2023-05-21T03:49:26.540Z,101710.44
2023-05-21T03:51:58.971Z,101705.97
2023-05-21T03:54:32.093Z,101706.84
2023-05-21T03:57:06.424Z,101703.44
2023-05-21T03:59:36.708Z,101703.44
2023-05-21T04:02:08.158Z,101699.06
2023-05-21T04:04:38.116Z,101702.78
2023-05-21T04:07:15.543Z,101703.72
2023-05-21T04:09:48.041Z,101702.09
2023-05-21T04:12:19.298Z,101698.69
2023-05-21T04:14:49.349Z,101695.06
2023-05-21T04:17:19.429Z,101696.72
2023-05-21T04:19:49.681Z,101706.34
2023-05-21T04:22:23.631Z,101692.47
2023-05-21T04:25:06.750Z,101701.41
2023-05-21T04:27:42.922Z,101699.81
2023-05-21T04:30:13.958Z,101696.44
2023-05-21T04:32:48.453Z,101704.34
2023-05-21T04:35:18.574Z,101694.13
2023-05-21T04:38:12.814Z,101703.75
2023-05-21T04:40:45.393Z,101694.09
2023-05-21T04:43:17.427Z,101695.94
2023-05-21T04:45:48.054Z,101688.97
2023-05-21T04:48:18.055Z,101690.88
2023-05-21T04:50:48.030Z,101690.00
2023-05-21T04:53:22.145Z,101700.53
2023-05-21T04:55:54.771Z,101710.38
2023-05-21T04:58:24.742Z,101699.25
2023-05-21T05:00:54.728Z,101701.19
2023-05-21T05:03:27.420Z,101702.84
2023-05-21T05:05:57.434Z,101686.38
2023-05-21T05:08:27.320Z,101694.44
2023-05-21T05:11:02.469Z,101694.63
2023-05-21T05:13:35.576Z,101691.28
2023-05-21T05:16:06.327Z,101686.25
2023-05-21T05:18:36.622Z,101683.66
2023-05-21T05:21:06.818Z,101676.94
2023-05-21T05:23:37.305Z,101677.97
2023-05-21T05:26:09.900Z,101686.06
2023-05-21T05:28:46.157Z,101681.69
2023-05-21T05:31:22.209Z,101686.25
2023-05-21T05:33:52.349Z,101691.69
2023-05-21T05:36:22.733Z,101686.50
2023-05-21T05:38:52.860Z,101685.69
2023-05-21T05:41:35.824Z,101687.75
2023-05-21T05:44:10.807Z,101676.47
2023-05-21T05:46:42.640Z,101685.19
2023-05-21T05:49:13.829Z,101682.56
2023-05-21T05:51:43.567Z,101678.25
2023-05-21T05:54:13.584Z,101675.69
2023-05-21T05:56:48.980Z,101675.78
2023-05-21T05:59:35.841Z,101668.94
2023-05-21T06:02:06.271Z,101678.81
2023-05-21T06:04:47.854Z,101684.09
2023-05-21T06:07:25.723Z,101683.44
2023-05-21T06:10:07.425Z,101685.34
2023-05-21T06:12:51.770Z,101678.47
2023-05-21T06:15:21.798Z,101678.66
2023-05-21T06:17:51.696Z,101680.53
2023-05-21T06:20:21.609Z,101680.47
2023-05-21T06:22:51.438Z,101675.22
2023-05-21T06:25:21.233Z,101671.13
2023-05-21T06:27:53.584Z,101666.88
2023-05-21T06:30:27.821Z,101669.66
2023-05-21T06:32:57.736Z,101672.56
2023-05-21T06:35:28.566Z,101663.84
2023-05-21T06:37:58.332Z,101668.28
2023-05-21T06:40:28.269Z,101674.47
2023-05-21T06:43:05.002Z,101675.47
2023-05-21T06:45:35.022Z,101666.91
2023-05-21T06:48:21.392Z,101672.50
2023-05-21T06:50:51.579Z,101669.28
2023-05-21T06:53:21.833Z,101680.84
2023-05-21T06:55:53.986Z,101667.75
2023-05-21T06:58:33.815Z,101668.75
2023-05-21T07:01:04.057Z,101669.03
2023-05-21T07:03:34.391Z,101661.09
2023-05-21T07:06:04.732Z,101653.59
2023-05-21T07:08:34.584Z,101658.13
2023-05-21T07:11:05.058Z,101653.63
2023-05-21T07:13:38.083Z,101657.31
2023-05-21T07:16:08.459Z,101644.28
2023-05-21T07:18:39.534Z,101651.56
2023-05-21T07:21:09.568Z,101640.28
2023-05-21T07:23:40.659Z,101645.72
2023-05-21T07:26:12.661Z,101641.63
2023-05-21T07:28:45.348Z,101642.53
2023-05-21T07:31:16.055Z,101639.13
2023-05-21T07:33:50.101Z,101648.03
2023-05-21T07:36:21.993Z,101639.25
2023-05-21T07:38:51.848Z,101651.81
2023-05-21T07:41:22.222Z,101643.09
2023-05-21T07:43:55.994Z,101650.19
2023-05-21T07:46:26.022Z,101641.47
2023-05-21T07:48:58.669Z,101647.91
2023-05-21T07:51:29.033Z,101644.16
2023-05-21T07:54:00.287Z,101644.22
2023-05-21T07:56:35.722Z,101643.50
2023-05-21T07:59:08.865Z,101641.06
2023-05-21T08:01:41.375Z,101627.84
2023-05-21T08:04:11.958Z,101627.06
2023-05-21T08:06:42.299Z,101632.41
2023-05-21T08:09:23.057Z,101630.75
2023-05-21T08:12:04.818Z,101629.03
2023-05-21T08:17:43.117Z,101629.03
2023-05-21T08:20:15.443Z,101622.06
2023-05-21T08:22:48.600Z,101617.72
2023-05-21T08:25:19.932Z,101617.84
2023-05-21T08:27:51.665Z,101614.44
2023-05-21T08:30:25.364Z,101618.03
2023-05-21T08:32:55.517Z,101619.00
2023-05-21T08:35:26.087Z,101619.97
2023-05-21T08:38:14.289Z,101621.78
2023-05-21T08:41:07.916Z,101605.91
2023-05-21T08:43:39.747Z,101612.16
2023-05-21T08:46:12.823Z,101611.31
2023-05-21T08:48:43.859Z,101610.44
2023-05-21T08:51:13.839Z,101609.56
2023-05-21T08:53:52.253Z,101614.00
2023-05-21T08:56:24.958Z,101609.53
2023-05-21T08:58:57.834Z,101613.09
2023-05-21T09:01:35.112Z,101613.06
2023-05-21T09:04:21.904Z,101614.84
2023-05-21T09:06:58.360Z,101610.34
2023-05-21T09:09:52.553Z,101602.28
2023-05-21T09:12:22.716Z,101607.63
2023-05-21T09:14:52.721Z,101604.03
2023-05-21T09:17:30.698Z,101601.28
2023-05-21T09:20:14.984Z,101602.94
2023-05-21T09:22:58.360Z,101603.78
2023-05-21T09:25:29.935Z,101608.16
2023-05-21T09:28:04.233Z,101604.69
2023-05-21T09:30:36.158Z,101608.31
2023-05-21T09:33:09.186Z,101606.50
2023-05-21T09:35:39.318Z,101609.19
2023-05-21T09:38:11.914Z,101610.06
2023-05-21T09:40:46.890Z,101610.94
2023-05-21T09:43:18.987Z,101609.94
2023-05-21T09:46:01.323Z,101614.38
2023-05-21T09:48:42.373Z,101607.19
2023-05-21T09:51:17.513Z,101608.84
2023-05-21T09:53:51.762Z,101599.94
2023-05-21T09:56:26.324Z,101603.44
2023-05-21T09:58:57.539Z,101605.16
2023-05-21T10:01:28.319Z,101598.09
2023-05-21T10:04:02.447Z,101598.00
2023-05-21T10:06:34.607Z,101592.63
2023-05-21T10:09:12.447Z,101591.38
2023-05-21T10:11:43.339Z,101585.84
2023-05-21T10:14:17.989Z,101583.75
2023-05-21T10:16:48.443Z,101589.63
2023-05-21T10:19:22.690Z,101589.41
2023-05-21T10:21:53.297Z,101569.81
2023-05-21T10:24:23.696Z,101571.28
2023-05-21T10:26:54.459Z,101564.72
2023-05-21T10:29:25.963Z,101576.16
2023-05-21T10:31:56.235Z,101556.91
2023-05-21T10:34:28.916Z,101557.28
2023-05-21T10:36:59.299Z,101561.72
2023-05-21T10:39:28.967Z,101550.91
2023-05-21T10:42:19.801Z,101550.25
2023-05-21T10:45:00.464Z,101551.91
2023-05-21T10:47:43.700Z,101549.97
2023-05-21T10:50:31.941Z,101542.72
2023-05-21T10:53:10.672Z,101545.34
2023-05-21T10:55:50.523Z,101552.94
2023-05-21T10:58:44.947Z,101541.19
2023-05-21T11:01:15.533Z,101547.19
2023-05-21T11:03:45.725Z,101535.78
2023-05-21T11:06:19.060Z,101527.94
2023-05-21T11:08:53.152Z,101532.22
2023-05-21T11:11:45.268Z,101525.16
2023-05-21T11:14:35.985Z,101529.75
2023-05-21T11:17:07.109Z,101532.44
2023-05-21T11:19:42.038Z,101529.94
2023-05-21T11:22:24.799Z,101511.91
2023-05-21T11:24:55.451Z,101518.22
2023-05-21T11:27:38.955Z,101521.31
2023-05-21T11:30:10.533Z,101514.84
2023-05-21T11:32:41.728Z,101523.81
2023-05-21T11:35:11.885Z,101525.63
2023-05-21T11:37:46.752Z,101521.25
2023-05-21T11:40:26.285Z,101520.44
2023-05-21T11:42:57.654Z,101516.78
2023-05-21T11:45:32.012Z,101508.75
2023-05-21T11:48:02.095Z,101514.91
2023-05-21T11:50:34.324Z,101505.97
2023-05-21T11:53:07.860Z,101516.72
2023-05-21T11:55:43.888Z,101503.28
2023-05-21T11:58:19.441Z,101501.34
2023-05-21T12:00:49.446Z,101500.41
2023-05-21T12:03:20.759Z,101502.97
2023-05-21T12:05:52.623Z,101498.66
2023-05-21T12:08:28.291Z,101490.63
2023-05-21T12:11:02.089Z,101492.38
2023-05-21T12:13:32.363Z,101498.53
2023-05-21T12:16:03.398Z,101488.81
2023-05-21T12:18:34.597Z,101488.06
2023-05-21T12:21:04.600Z,101495.06
2023-05-21T12:23:37.194Z,101495.13
2023-05-21T12:26:08.328Z,101495.06
2023-05-21T12:28:38.199Z,101489.66
2023-05-21T12:31:08.338Z,101487.09
2023-05-21T12:33:38.214Z,101492.25
2023-05-21T12:36:08.748Z,101490.59
2023-05-21T12:38:41.994Z,101488.63
2023-05-21T12:41:11.959Z,101487.47
2023-05-21T12:43:41.977Z,101489.22
2023-05-21T12:46:15.090Z,101490.09
2023-05-21T12:48:45.508Z,101490.81
2023-05-21T12:51:15.434Z,101484.31
2023-05-21T12:53:48.083Z,101483.75
2023-05-21T12:56:18.935Z,101481.78
2023-05-21T12:58:53.188Z,101478.91
2023-05-21T13:01:24.839Z,101472.66
2023-05-21T13:03:54.832Z,101467.19
2023-05-21T13:06:26.572Z,101473.09
2023-05-21T13:08:58.982Z,101464.09
2023-05-21T13:11:29.065Z,101468.53
2023-05-21T13:13:59.634Z,101462.22
2023-05-21T13:16:29.359Z,101461.97
2023-05-21T13:18:59.294Z,101454.94
2023-05-21T13:21:29.446Z,101450.50
2023-05-21T13:24:02.020Z,101458.31
2023-05-21T13:26:32.066Z,101451.16
2023-05-21T13:29:01.984Z,101452.00
2023-05-21T13:31:32.201Z,101458.25
2023-05-21T13:34:02.410Z,101454.72
2023-05-21T13:36:34.227Z,101457.44
2023-05-21T13:39:07.119Z,101448.31
2023-05-21T13:41:37.053Z,101450.78
2023-05-21T13:44:07.128Z,101445.28
2023-05-21T13:46:39.610Z,101446.06
2023-05-21T13:49:10.088Z,101447.19
2023-05-21T13:51:40.093Z,101442.78
2023-05-21T13:54:14.300Z,101449.06
2023-05-21T13:56:44.341Z,101439.22
2023-05-21T13:59:14.514Z,101438.28
2023-05-21T14:01:44.817Z,101442.66
2023-05-21T14:04:14.883Z,101440.28
2023-05-21T14:06:44.884Z,101432.00
2023-05-21T14:09:17.544Z,101436.09
2023-05-21T14:11:47.468Z,101440.59
2023-05-21T14:14:19.235Z,101432.53
2023-05-21T14:16:49.814Z,101428.91
2023-05-21T14:19:20.002Z,101434.22
2023-05-21T14:21:50.012Z,101442.03
2023-05-21T14:24:22.603Z,101430.25
2023-05-21T14:26:52.436Z,101436.47
2023-05-21T14:29:22.433Z,101432.09
2023-05-21T14:31:52.525Z,101428.69
2023-05-21T14:34:22.211Z,101436.66
2023-05-21T14:36:52.286Z,101428.41
2023-05-21T14:39:24.750Z,101427.81
2023-05-21T14:41:54.779Z,101430.00
2023-05-21T14:44:24.872Z,101422.00
2023-05-21T14:46:54.772Z,101424.69
2023-05-21T14:49:24.612Z,101429.97
2023-05-21T14:51:54.330Z,101424.34
2023-05-21T14:54:26.878Z,101417.88
2023-05-21T14:56:56.929Z,101419.47
2023-05-21T14:59:26.783Z,101422.22
2023-05-21T15:01:56.869Z,101415.72
2023-05-21T15:04:26.964Z,101415.72
2023-05-21T15:06:56.848Z,101413.31
2023-05-21T15:09:29.307Z,101406.13
2023-05-21T15:11:59.221Z,101411.31
2023-05-21T15:14:29.147Z,101414.25
2023-05-21T15:16:59.037Z,101411.84
2023-05-21T15:19:29.021Z,101405.63
2023-05-21T15:21:59.070Z,101406.47
2023-05-21T15:24:31.440Z,101406.50
2023-05-21T15:27:01.298Z,101408.22
2023-05-21T15:29:31.202Z,101402.09
2023-05-21T15:32:05.199Z,101401.28
2023-05-21T15:34:35.076Z,101395.06
2023-05-21T15:37:05.374Z,101403.78
2023-05-21T15:39:37.839Z,101393.25
2023-05-21T15:42:08.079Z,101396.19
2023-05-21T15:44:37.692Z,101393.69
2023-05-21T15:47:08.365Z,101382.59
2023-05-21T15:49:38.500Z,101382.97
2023-05-21T15:52:09.446Z,101383.63
2023-05-21T15:54:41.989Z,101388.16
2023-05-21T15:57:11.791Z,101383.03
2023-05-21T15:59:41.613Z,101378.28
2023-05-21T16:02:11.799Z,101378.44
2023-05-21T16:04:41.683Z,101384.00
2023-05-21T16:07:11.571Z,101388.56
2023-05-21T16:09:44.704Z,101382.34
2023-05-21T16:12:14.663Z,101381.47
2023-05-21T16:14:44.812Z,101380.66
2023-05-21T16:17:14.733Z,101373.69
2023-05-21T16:19:44.584Z,101372.78
2023-05-21T16:22:14.538Z,101371.88
2023-05-21T16:24:46.943Z,101374.78
2023-05-21T16:27:16.802Z,101368.56
2023-05-21T16:29:47.222Z,101364.34
2023-05-21T16:32:17.221Z,101359.91
2023-05-21T16:34:47.271Z,101359.03
2023-05-21T16:37:17.204Z,101352.13
2023-05-21T16:39:49.579Z,101354.88
2023-05-21T16:42:19.614Z,101355.91
2023-05-21T16:44:49.532Z,101352.25
2023-05-21T16:47:19.359Z,101351.38
2023-05-21T16:49:49.253Z,101358.50
2023-05-21T16:52:19.116Z,101357.75
2023-05-21T16:54:51.577Z,101350.50
2023-05-21T16:57:21.360Z,101357.72
2023-05-21T16:59:51.223Z,101365.69
2023-05-21T17:02:21.135Z,101366.56
2023-05-21T17:04:51.097Z,101363.03
2023-05-21T17:07:20.877Z,101363.94
2023-05-21T17:09:53.268Z,101371.22
2023-05-21T17:12:23.160Z,101370.56
2023-05-21T17:14:52.964Z,101368.91
2023-05-21T17:17:22.807Z,101371.69
2023-05-21T17:19:52.632Z,101377.19
2023-05-21T17:22:22.508Z,101380.03
2023-05-21T17:24:54.992Z,101375.69
2023-05-21T17:27:24.844Z,101370.31
2023-05-21T17:29:54.645Z,101377.50
2023-05-21T17:32:24.521Z,101368.63
2023-05-21T17:34:54.317Z,101370.41
2023-05-21T17:37:24.613Z,101374.97
2023-05-21T17:39:57.806Z,101376.66
2023-05-21T17:42:27.607Z,101377.66
2023-05-21T17:44:57.440Z,101383.09
2023-05-21T17:47:27.285Z,101389.69
2023-05-21T17:49:57.149Z,101378.19
2023-05-21T17:52:27.150Z,101379.25
2023-05-21T17:54:59.557Z,101384.72
2023-05-21T17:57:29.305Z,101381.41
2023-05-21T17:59:59.076Z,101384.22
2023-05-21T18:02:28.924Z,101388.78
2023-05-21T18:04:58.698Z,101386.25
2023-05-21T18:07:28.493Z,101380.06
2023-05-21T18:10:00.844Z,101379.31
2023-05-21T18:12:30.705Z,101376.81
2023-05-21T18:15:01.960Z,101373.44
2023-05-21T18:17:31.776Z,101376.25
2023-05-21T18:20:01.554Z,101379.97
2023-05-21T18:22:31.330Z,101374.75
2023-05-21T18:25:03.918Z,101373.03
2023-05-21T18:27:33.699Z,101385.56
2023-05-21T18:30:06.482Z,101372.19
2023-05-21T18:32:38.945Z,101372.34
2023-05-21T18:35:10.935Z,101382.22
2023-05-21T18:37:43.106Z,101377.88
2023-05-21T18:40:17.608Z,101375.31
2023-05-21T18:42:47.453Z,101381.69
2023-05-21T18:45:17.870Z,101376.47
2023-05-21T18:47:47.704Z,101381.06
2023-05-21T18:50:19.235Z,101381.22
2023-05-21T18:52:49.422Z,101376.84
2023-05-21T18:55:22.867Z,101384.03
2023-05-21T18:57:52.716Z,101377.84
2023-05-21T19:00:22.952Z,101369.88
2023-05-21T19:02:52.839Z,101384.22
2023-05-21T19:05:22.783Z,101372.66
2023-05-21T19:07:52.651Z,101371.88
2023-05-21T19:10:25.190Z,101379.13
2023-05-21T19:12:55.005Z,101376.50
2023-05-21T19:15:24.826Z,101376.59
2023-05-21T19:17:54.801Z,101377.50
2023-05-21T19:20:28.156Z,101383.78
2023-05-21T19:22:58.156Z,101389.22
2023-05-21T19:25:31.657Z,101391.97
2023-05-21T19:28:01.543Z,101383.16
2023-05-21T19:30:33.709Z,101394.81
2023-05-21T19:33:03.625Z,101386.00
2023-05-21T19:35:33.439Z,101393.16
2023-05-21T19:38:05.316Z,101394.97
2023-05-21T19:40:38.384Z,101397.69
2023-05-21T19:43:08.339Z,101397.72
2023-05-21T19:45:38.175Z,101404.88
2023-05-21T19:48:09.036Z,101403.19
2023-05-21T19:50:39.103Z,101405.84
2023-05-21T19:53:09.013Z,101415.66
2023-05-21T19:55:41.747Z,101411.31
2023-05-21T19:58:13.587Z,101418.44
2023-05-21T20:00:47.542Z,101421.97
2023-05-21T20:03:17.352Z,101430.06
2023-05-21T20:05:47.124Z,101423.91
2023-05-21T20:08:17.468Z,101423.06
2023-05-21T20:10:51.710Z,101422.25
2023-05-21T20:13:21.833Z,101424.09
2023-05-21T20:15:51.666Z,101430.34
2023-05-21T20:18:22.570Z,101422.31
2023-05-21T20:20:52.403Z,101419.72
2023-05-21T20:23:22.178Z,101428.59
2023-05-21T20:25:54.713Z,101418.81
2023-05-21T20:28:24.842Z,101417.91
2023-05-21T20:30:57.783Z,101423.34
2023-05-21T20:33:28.096Z,101414.50
2023-05-21T20:35:57.860Z,101423.34
2023-05-21T20:38:28.173Z,101422.41
2023-05-21T20:41:00.633Z,101420.69
2023-05-21T20:43:30.908Z,101427.78
2023-05-21T20:46:02.490Z,101430.41
2023-05-21T20:48:32.769Z,101426.84
2023-05-21T20:51:03.453Z,101420.59
2023-05-21T20:53:33.891Z,101418.81
2023-05-21T20:56:08.337Z,101421.50
2023-05-21T20:58:40.106Z,101414.38
2023-05-21T21:01:10.916Z,101421.50
2023-05-21T21:03:41.582Z,101424.16
2023-05-21T21:06:11.450Z,101416.13
2023-05-21T21:08:41.326Z,101438.34
2023-05-21T21:11:13.849Z,101428.53
2023-05-21T21:13:43.980Z,101423.19
2023-05-21T21:16:14.353Z,101430.28
2023-05-21T22:54:45.409Z,101394.34
2023-05-21T22:57:15.469Z,101390.84
2023-05-21T22:59:45.617Z,101393.53
2023-05-21T23:02:17.087Z,101393.53
2023-05-21T23:04:48.559Z,101391.75
2023-05-21T23:07:19.129Z,101386.47
2023-05-21T23:09:51.980Z,101389.16
2023-05-21T23:12:22.047Z,101392.72
2023-05-21T23:14:52.017Z,101390.06
2023-05-21T23:17:22.248Z,101392.78
2023-05-21T23:19:52.812Z,101396.31
2023-05-21T23:22:22.949Z,101386.56
2023-05-21T23:24:55.718Z,101392.81
2023-05-21T23:27:25.808Z,101384.84
2023-05-21T23:29:55.977Z,101394.59
2023-05-21T23:32:26.298Z,101392.84
2023-05-21T23:34:57.163Z,101384.88
2023-05-21T23:37:27.204Z,101392.91
2023-05-21T23:39:59.793Z,101384.06
2023-05-21T23:42:29.867Z,101388.53
2023-05-21T23:44:59.822Z,101385.88
2023-05-21T23:47:29.897Z,101384.09
2023-05-21T23:49:59.909Z,101385.03
2023-05-21T23:52:29.761Z,101380.56
2023-05-21T23:55:02.270Z,101385.00
2023-05-21T23:57:32.313Z,101387.72
